Time;durP1;ratioP1;P1;durP2;ratioP2;P2;SDS_P1;SDS_P2;PMS_P1;PMS_P2;Temp;Humidity;BMP_temperature;BMP_pressure;BME280_temperature;BME280_humidity;BME280_pressure;Samples;Min_cycle;Max_cycle;Signal;HPM_P1;HPM_P2
2023/05/14 00:01:30;;;;;;;;;;;19.30;91.00;;;;;;5096909;28;19908;-62
2023/05/14 00:03:56;;;;;;;;;;;19.30;91.00;;;;;;5095260;28;19954;-62
2023/05/14 00:06:21;;;;;;;;;;;19.30;91.00;;;;;;5096416;28;19918;-62
2023/05/14 00:08:47;;;;;;;;;;;19.30;91.00;;;;;;5096014;28;19940;-62
2023/05/14 00:11:12;;;;;;;;;;;19.30;91.00;;;;;;5095997;28;19963;-62
2023/05/14 00:13:38;;;;;;;;;;;19.20;90.90;;;;;;5078008;28;19921;-62
2023/05/14 00:16:03;;;;;;;;;;;19.30;91.00;;;;;;5078882;28;19919;-62
2023/05/14 00:18:29;;;;;;;;;;;19.30;91.00;;;;;;5096174;28;20300;-62
2023/05/14 00:20:54;;;;;;;;;;;19.30;91.00;;;;;;5078052;28;19931;-62
2023/05/14 00:23:20;;;;;;;;;;;19.30;91.00;;;;;;5095373;28;19908;-62
2023/05/14 00:25:46;;;;;;;;;;;19.20;91.00;;;;;;5095742;28;19997;-62
2023/05/14 00:28:11;;;;;;;;;;;19.20;91.00;;;;;;5077867;28;19908;-62
2023/05/14 00:30:37;;;;;;;;;;;19.20;91.00;;;;;;5095910;28;19953;-62
2023/05/14 00:33:02;;;;;;;;;;;19.20;91.00;;;;;;5095111;28;19920;-62
2023/05/14 00:35:28;;;;;;;;;;;19.20;91.00;;;;;;5094147;28;19912;-62
2023/05/14 00:37:53;;;;;;;;;;;19.20;91.00;;;;;;5092299;28;19908;-62
2023/05/14 00:40:19;;;;;;;;;;;19.20;91.00;;;;;;5075767;28;20404;-62
2023/05/14 00:42:45;;;;;;;;;;;19.20;91.00;;;;;;5095169;28;19927;-61
2023/05/14 00:45:10;;;;;;;;;;;19.20;91.00;;;;;;5094192;28;19916;-62
2023/05/14 00:47:38;;;;;;;;;;;19.20;91.00;;;;;;5095507;28;19931;-62
2023/05/14 00:50:03;;;;;;;;;;;19.20;91.00;;;;;;5095763;28;19912;-62
2023/05/14 00:52:29;;;;;;;;;;;19.20;91.00;;;;;;5077279;28;19973;-62
2023/05/14 00:54:55;;;;;;;;;;;19.20;91.00;;;;;;5076658;28;19958;-62
2023/05/14 00:57:21;;;;;;;;;;;19.20;91.00;;;;;;5077260;28;19995;-62
2023/05/14 00:59:46;;;;;;;;;;;19.20;91.00;;;;;;5095123;28;19908;-61
2023/05/14 01:02:12;;;;;;;;;;;19.20;91.00;;;;;;5095054;28;19915;-61
2023/05/14 01:04:38;;;;;;;;;;;19.20;91.00;;;;;;5094482;28;20358;-61
2023/05/14 01:07:09;;;;;;;;;;;19.20;91.00;;;;;;5077024;28;19908;-62
2023/05/14 01:09:41;;;;;;;;;;;19.20;91.00;;;;;;5095111;28;19912;-62
2023/05/14 01:12:12;;;;;;;;;;;19.20;91.00;;;;;;5095190;28;19964;-62
2023/05/14 01:14:51;;;;;;;;;;;19.20;91.00;;;;;;5093534;28;19912;-62
2023/05/14 01:17:18;;;;;;;;;;;19.20;91.00;;;;;;5095040;28;19931;-62
2023/05/14 01:19:45;;;;;;;;;;;19.20;91.00;;;;;;5094996;28;19915;-61
2023/05/14 01:22:11;;;;;;;;;;;19.20;91.20;;;;;;5076673;28;19909;-62
2023/05/14 01:24:36;;;;;;;;;;;19.20;91.00;;;;;;5075146;28;19919;-62
2023/05/14 01:27:08;;;;;;;;;;;19.20;91.00;;;;;;5094818;28;19962;-62
2023/05/14 01:29:36;;;;;;;;;;;19.20;91.00;;;;;;5094453;28;20325;-62
2023/05/14 01:32:04;;;;;;;;;;;19.20;91.00;;;;;;5095288;28;20310;-62
2023/05/14 01:34:30;;;;;;;;;;;19.20;91.10;;;;;;5094263;28;20381;-62
2023/05/14 01:36:56;;;;;;;;;;;19.20;91.30;;;;;;5092170;28;19916;-62
2023/05/14 01:39:22;;;;;;;;;;;19.20;91.10;;;;;;5094628;28;19915;-62
2023/05/14 01:41:48;;;;;;;;;;;19.20;91.10;;;;;;5094304;28;19915;-62
2023/05/14 01:44:14;;;;;;;;;;;19.10;91.10;;;;;;5094726;28;19920;-61
2023/05/14 01:46:39;;;;;;;;;;;19.10;91.10;;;;;;5094049;28;19916;-62
2023/05/14 01:49:05;;;;;;;;;;;19.10;91.10;;;;;;5094372;28;19919;-61
2023/05/14 01:51:30;;;;;;;;;;;19.10;91.10;;;;;;5075907;28;20006;-62
2023/05/14 01:53:56;;;;;;;;;;;19.10;91.10;;;;;;5093520;28;19912;-62
2023/05/14 01:56:22;;;;;;;;;;;19.10;91.10;;;;;;5093526;28;19912;-61
2023/05/14 01:58:48;;;;;;;;;;;19.10;91.10;;;;;;5094413;28;20354;-61
2023/05/14 02:01:13;;;;;;;;;;;19.20;91.10;;;;;;5094004;28;19909;-61
2023/05/14 02:03:39;;;;;;;;;;;19.10;91.10;;;;;;5094068;28;20275;-61
2023/05/14 02:06:04;;;;;;;;;;;19.20;91.10;;;;;;5075247;28;20351;-61
2023/05/14 02:08:30;;;;;;;;;;;19.20;91.10;;;;;;5076114;28;19912;-62
2023/05/14 02:10:55;;;;;;;;;;;19.20;91.10;;;;;;5093921;28;19916;-62
2023/05/14 02:13:21;;;;;;;;;;;19.20;91.10;;;;;;5094263;28;19912;-61
2023/05/14 02:15:46;;;;;;;;;;;19.20;91.10;;;;;;5092002;28;19912;-61
2023/05/14 02:18:12;;;;;;;;;;;19.20;91.10;;;;;;5094226;28;19908;-61
2023/05/14 02:20:37;;;;;;;;;;;19.20;91.10;;;;;;5094115;28;20345;-61
2023/05/14 02:23:03;;;;;;;;;;;19.20;91.10;;;;;;5094140;28;20355;-61
2023/05/14 02:25:28;;;;;;;;;;;19.20;91.10;;;;;;5093406;28;19912;-61
2023/05/14 02:27:54;;;;;;;;;;;19.20;91.10;;;;;;5094201;28;20259;-60
2023/05/14 02:30:20;;;;;;;;;;;19.10;91.10;;;;;;5075832;28;19958;-60
2023/05/14 02:32:45;;;;;;;;;;;19.10;91.10;;;;;;5075855;28;19927;-60
2023/05/14 02:35:11;;;;;;;;;;;19.10;91.10;;;;;;5092581;28;19912;-60
2023/05/14 02:37:36;;;;;;;;;;;19.10;91.10;;;;;;5093991;28;19909;-61
2023/05/14 02:40:03;;;;;;;;;;;19.10;91.10;;;;;;5094006;28;19908;-61
2023/05/14 02:42:28;;;;;;;;;;;19.10;91.10;;;;;;5093856;28;19966;-61
2023/05/14 02:44:54;;;;;;;;;;;19.10;91.10;;;;;;5075284;28;19908;-60
2023/05/14 02:47:19;;;;;;;;;;;19.10;91.10;;;;;;5075793;28;19908;-61
2023/05/14 02:49:45;;;;;;;;;;;19.10;91.10;;;;;;5094022;28;20010;-61
2023/05/14 02:52:10;;;;;;;;;;;19.10;91.10;;;;;;5093859;28;19919;-61
2023/05/14 02:54:36;;;;;;;;;;;19.10;91.10;;;;;;5093851;28;20263;-60
2023/05/14 02:57:01;;;;;;;;;;;19.10;91.10;;;;;;5093540;28;19912;-61
2023/05/14 02:59:27;;;;;;;;;;;19.10;91.10;;;;;;5093731;28;19991;-61
2023/05/14 03:01:52;;;;;;;;;;;19.10;91.10;;;;;;5093826;28;19908;-61
2023/05/14 03:04:18;;;;;;;;;;;19.10;91.10;;;;;;5093750;28;19912;-61
2023/05/14 03:06:43;;;;;;;;;;;19.10;91.10;;;;;;5076999;28;19913;-60
2023/05/14 03:09:09;;;;;;;;;;;19.10;91.10;;;;;;5097793;28;19908;-61
2023/05/14 03:11:34;;;;;;;;;;;19.10;91.10;;;;;;5097473;28;19951;-61
2023/05/14 03:14:00;;;;;;;;;;;19.10;91.10;;;;;;5096019;28;19919;-61
2023/05/14 03:16:26;;;;;;;;;;;19.10;91.10;;;;;;5097132;28;20325;-61
2023/05/14 03:18:51;;;;;;;;;;;19.20;91.10;;;;;;5097442;28;19908;-60
2023/05/14 03:21:17;;;;;;;;;;;19.10;91.10;;;;;;5096825;28;19939;-60
2023/05/14 03:23:42;;;;;;;;;;;19.10;91.10;;;;;;5096428;28;19912;-62
2023/05/14 03:26:08;;;;;;;;;;;19.10;91.10;;;;;;5095928;28;19912;-60
2023/05/14 03:28:33;;;;;;;;;;;19.10;91.10;;;;;;5097121;28;19908;-60
2023/05/14 03:30:59;;;;;;;;;;;19.10;91.10;;;;;;5096715;28;19955;-61
2023/05/14 03:33:24;;;;;;;;;;;19.10;91.10;;;;;;5096728;28;19918;-60
2023/05/14 03:35:50;;;;;;;;;;;19.10;91.10;;;;;;5096208;28;20401;-60
2023/05/14 03:38:16;;;;;;;;;;;19.10;91.10;;;;;;5096957;28;19994;-60
2023/05/14 03:40:42;;;;;;;;;;;19.10;91.10;;;;;;5078779;28;20007;-61
2023/05/14 03:43:08;;;;;;;;;;;19.10;91.10;;;;;;5096544;28;19920;-60
2023/05/14 03:45:33;;;;;;;;;;;19.10;91.10;;;;;;5095876;28;19919;-60
2023/05/14 03:47:59;;;;;;;;;;;19.10;91.10;;;;;;5096684;28;19999;-61
2023/05/14 03:50:24;;;;;;;;;;;19.10;91.10;;;;;;5096641;28;19912;-60
2023/05/14 03:52:51;;;;;;;;;;;19.10;91.10;;;;;;5096518;28;20010;-60
2023/05/14 03:55:19;;;;;;;;;;;19.10;91.20;;;;;;5096206;28;19955;-61
2023/05/14 03:57:45;;;;;;;;;;;19.10;91.20;;;;;;5096268;28;20279;-60
2023/05/14 04:00:11;;;;;;;;;;;19.10;91.20;;;;;;5096232;28;19915;-61
2023/05/14 04:02:36;;;;;;;;;;;19.10;91.20;;;;;;5096378;28;19915;-60
2023/05/14 04:05:02;;;;;;;;;;;19.10;91.20;;;;;;5096088;28;19909;-61
2023/05/14 04:07:28;;;;;;;;;;;19.10;91.20;;;;;;5094628;28;19981;-61
2023/05/14 04:09:54;;;;;;;;;;;19.10;91.10;;;;;;5078151;28;20351;-60
2023/05/14 04:12:19;;;;;;;;;;;19.10;91.10;;;;;;5096299;28;19920;-60
2023/05/14 04:14:44;;;;;;;;;;;19.10;91.20;;;;;;5095791;28;20278;-60
2023/05/14 04:17:10;;;;;;;;;;;19.10;91.10;;;;;;5095767;28;20010;-60
2023/05/14 04:19:35;;;;;;;;;;;19.10;91.10;;;;;;5096513;28;20370;-60
2023/05/14 04:22:01;;;;;;;;;;;19.10;91.10;;;;;;5096169;28;20046;-61
2023/05/14 04:24:26;;;;;;;;;;;19.10;91.10;;;;;;5095669;28;19999;-60
2023/05/14 04:26:52;;;;;;;;;;;19.10;91.10;;;;;;5095779;28;19908;-60
2023/05/14 04:29:17;;;;;;;;;;;19.10;91.10;;;;;;5096193;28;20297;-60
2023/05/14 04:31:43;;;;;;;;;;;19.10;91.10;;;;;;5096214;28;20007;-60
2023/05/14 04:34:08;;;;;;;;;;;19.10;91.10;;;;;;5094698;28;20362;-60
2023/05/14 04:36:34;;;;;;;;;;;19.10;91.10;;;;;;5095831;28;20049;-60
2023/05/14 04:38:59;;;;;;;;;;;19.10;91.10;;;;;;5096155;28;19947;-61
2023/05/14 04:41:25;;;;;;;;;;;19.10;91.20;;;;;;5095740;28;19916;-61
2023/05/14 04:43:54;;;;;;;;;;;19.10;91.10;;;;;;5095799;28;19924;-60
2023/05/14 04:46:19;;;;;;;;;;;19.10;91.10;;;;;;5094883;28;19912;-60
2023/05/14 04:48:45;;;;;;;;;;;19.10;91.20;;;;;;5077469;28;20279;-60
2023/05/14 04:51:10;;;;;;;;;;;19.10;91.20;;;;;;5095517;28;19912;-61
2023/05/14 04:53:36;;;;;;;;;;;19.10;91.20;;;;;;5095873;28;19916;-60
2023/05/14 04:56:01;;;;;;;;;;;19.10;91.20;;;;;;5094749;28;20355;-60
2023/05/14 04:58:28;;;;;;;;;;;19.00;91.20;;;;;;5076512;28;19919;-60
2023/05/14 05:00:53;;;;;;;;;;;19.10;91.20;;;;;;5095334;28;19908;-60
2023/05/14 05:03:18;;;;;;;;;;;19.00;91.20;;;;;;5095004;28;20244;-60
2023/05/14 05:05:44;;;;;;;;;;;19.00;91.20;;;;;;5094402;28;20359;-60
2023/05/14 05:08:10;;;;;;;;;;;19.10;91.30;;;;;;5077067;28;19908;-60
2023/05/14 05:10:35;;;;;;;;;;;19.00;91.20;;;;;;5076995;28;19963;-60
2023/05/14 05:13:01;;;;;;;;;;;19.00;91.30;;;;;;5094378;28;20309;-60
2023/05/14 05:15:26;;;;;;;;;;;19.10;91.30;;;;;;5076902;28;19915;-60
2023/05/14 05:17:52;;;;;;;;;;;19.10;91.30;;;;;;5095041;28;19912;-60
2023/05/14 05:20:17;;;;;;;;;;;19.10;91.30;;;;;;5094732;28;20328;-60
2023/05/14 05:22:43;;;;;;;;;;;19.10;91.30;;;;;;5094970;28;19908;-60
2023/05/14 05:25:08;;;;;;;;;;;19.10;91.30;;;;;;5093907;28;19916;-60
2023/05/14 05:27:34;;;;;;;;;;;19.10;91.30;;;;;;5095257;28;20007;-60
2023/05/14 05:30:02;;;;;;;;;;;19.10;91.30;;;;;;5094755;28;19912;-60
2023/05/14 05:32:28;;;;;;;;;;;19.10;91.30;;;;;;5094947;28;19964;-60
2023/05/14 05:34:54;;;;;;;;;;;19.10;91.30;;;;;;5094037;28;20002;-60
2023/05/14 05:37:19;;;;;;;;;;;19.10;91.30;;;;;;5076634;28;19915;-60
2023/05/14 05:39:47;;;;;;;;;;;19.10;91.30;;;;;;5095062;28;20128;-60
2023/05/14 05:42:12;;;;;;;;;;;19.10;91.30;;;;;;5094764;28;20001;-60
2023/05/14 05:44:38;;;;;;;;;;;19.10;91.30;;;;;;5094008;28;19916;-60
2023/05/14 05:47:03;;;;;;;;;;;19.10;91.30;;;;;;5094391;28;19908;-61
2023/05/14 05:49:29;;;;;;;;;;;19.10;91.30;;;;;;5076395;28;20301;-60
2023/05/14 05:51:54;;;;;;;;;;;19.10;91.30;;;;;;5094782;28;19953;-60
2023/05/14 05:54:20;;;;;;;;;;;19.10;91.30;;;;;;5093929;28;19912;-60
2023/05/14 05:56:45;;;;;;;;;;;19.10;91.30;;;;;;5093884;28;19916;-60
2023/05/14 05:59:11;;;;;;;;;;;19.10;91.30;;;;;;5094139;28;19908;-60
2023/05/14 06:01:36;;;;;;;;;;;19.10;91.60;;;;;;5094323;28;20343;-60
2023/05/14 06:04:04;;;;;;;;;;;19.10;91.30;;;;;;5094680;28;19995;-60
2023/05/14 06:06:31;;;;;;;;;;;19.10;91.30;;;;;;5093519;28;20260;-60
2023/05/14 06:08:57;;;;;;;;;;;19.10;91.30;;;;;;5076141;28;19908;-60
2023/05/14 06:11:22;;;;;;;;;;;19.10;91.30;;;;;;5094137;28;19916;-60
2023/05/14 06:13:48;;;;;;;;;;;19.10;91.30;;;;;;5074817;28;19938;-60
2023/05/14 06:16:13;;;;;;;;;;;19.10;91.30;;;;;;5075943;28;19908;-60
2023/05/14 06:18:39;;;;;;;;;;;19.10;91.30;;;;;;5094142;28;19909;-60
2023/05/14 06:21:04;;;;;;;;;;;19.10;91.30;;;;;;5094465;28;19908;-60
2023/05/14 06:23:31;;;;;;;;;;;19.10;91.30;;;;;;5093591;28;19919;-60
2023/05/14 06:25:56;;;;;;;;;;;19.10;91.30;;;;;;5093749;28;20427;-60
2023/05/14 06:28:22;;;;;;;;;;;19.10;91.30;;;;;;5094020;28;19940;-60
2023/05/14 06:30:52;;;;;;;;;;;19.10;91.30;;;;;;5093697;28;19912;-60
2023/05/14 06:33:19;;;;;;;;;;;19.10;91.30;;;;;;5093570;28;19912;-61
2023/05/14 06:35:45;;;;;;;;;;;19.10;91.30;;;;;;5093442;28;19912;-60
2023/05/14 06:38:10;;;;;;;;;;;19.10;91.30;;;;;;5093584;28;20317;-60
2023/05/14 06:40:36;;;;;;;;;;;19.10;91.30;;;;;;5095084;28;19909;-60
2023/05/14 06:43:01;;;;;;;;;;;19.10;91.30;;;;;;5097112;28;19920;-60
2023/05/14 06:45:27;;;;;;;;;;;19.10;91.30;;;;;;5101259;28;19912;-60
2023/05/14 06:47:52;;;;;;;;;;;19.10;91.30;;;;;;5097760;28;19960;-60
2023/05/14 06:50:18;;;;;;;;;;;19.10;91.30;;;;;;5096504;28;19916;-60
2023/05/14 06:52:44;;;;;;;;;;;19.10;91.30;;;;;;5098078;28;20008;-60
2023/05/14 06:55:09;;;;;;;;;;;19.10;91.30;;;;;;5097390;28;19939;-60
2023/05/14 06:57:34;;;;;;;;;;;19.10;91.30;;;;;;5097685;28;19909;-60
2023/05/14 07:00:00;;;;;;;;;;;19.10;91.30;;;;;;5097145;28;20440;-60
2023/05/14 07:02:25;;;;;;;;;;;19.10;91.30;;;;;;5097306;28;19916;-60
2023/05/14 07:04:51;;;;;;;;;;;19.10;91.30;;;;;;5097293;28;19908;-60
2023/05/14 07:07:19;;;;;;;;;;;19.10;91.30;;;;;;5079280;28;19948;-60
2023/05/14 07:09:44;;;;;;;;;;;19.10;91.30;;;;;;5078198;28;19916;-60
2023/05/14 07:12:10;;;;;;;;;;;19.10;91.40;;;;;;5093263;28;20001;-60
2023/05/14 07:14:35;;;;;;;;;;;19.00;91.30;;;;;;5095767;28;19923;-60
2023/05/14 07:17:01;;;;;;;;;;;19.10;91.30;;;;;;5097570;28;19918;-60
2023/05/14 07:19:28;;;;;;;;;;;19.10;91.30;;;;;;5097017;28;19908;-60
2023/05/14 07:21:53;;;;;;;;;;;19.10;91.30;;;;;;5097093;28;19914;-59
2023/05/14 07:24:19;;;;;;;;;;;19.10;91.30;;;;;;5077523;28;20320;-59
2023/05/14 07:26:44;;;;;;;;;;;19.10;91.40;;;;;;5094817;28;20003;-62
2023/05/14 07:29:10;;;;;;;;;;;19.10;91.30;;;;;;5105387;28;20010;-60
2023/05/14 07:31:35;;;;;;;;;;;19.10;91.30;;;;;;5096570;28;20007;-59
2023/05/14 07:34:01;;;;;;;;;;;19.10;91.30;;;;;;5079432;28;20052;-59
2023/05/14 07:36:26;;;;;;;;;;;19.10;91.40;;;;;;5094919;28;19912;-59
2023/05/14 07:38:52;;;;;;;;;;;19.10;91.40;;;;;;5097214;28;20013;-59
2023/05/14 07:41:17;;;;;;;;;;;19.10;91.40;;;;;;5095828;28;20481;-59
2023/05/14 07:43:43;;;;;;;;;;;19.10;91.40;;;;;;5096704;28;19927;-59
2023/05/14 07:46:08;;;;;;;;;;;19.10;91.40;;;;;;5096411;28;19915;-59
2023/05/14 07:48:34;;;;;;;;;;;19.10;91.40;;;;;;5094729;28;20376;-60
2023/05/14 07:50:59;;;;;;;;;;;19.10;91.40;;;;;;5078368;28;19955;-59
2023/05/14 07:53:25;;;;;;;;;;;19.10;91.40;;;;;;5077139;28;19911;-60
2023/05/14 07:55:50;;;;;;;;;;;19.10;91.40;;;;;;5096825;28;19918;-59
2023/05/14 07:58:16;;;;;;;;;;;19.10;91.40;;;;;;5095527;28;19916;-60
2023/05/14 08:00:41;;;;;;;;;;;19.10;91.50;;;;;;5078195;28;19908;-59
2023/05/14 08:03:07;;;;;;;;;;;19.10;91.40;;;;;;5099345;28;19919;-60
2023/05/14 08:05:32;;;;;;;;;;;19.10;91.40;;;;;;5116570;28;19947;-61
2023/05/14 08:07:58;;;;;;;;;;;19.10;91.50;;;;;;5109898;28;20411;-59
2023/05/14 08:10:23;;;;;;;;;;;19.10;91.50;;;;;;5095817;28;19912;-59
2023/05/14 08:12:49;;;;;;;;;;;19.10;91.50;;;;;;5097989;28;19920;-59
2023/05/14 08:15:14;;;;;;;;;;;19.10;91.50;;;;;;5105627;28;19949;-59
2023/05/14 08:17:40;;;;;;;;;;;19.10;91.50;;;;;;5077919;28;20355;-59
2023/05/14 08:20:06;;;;;;;;;;;19.20;91.50;;;;;;5113250;28;19912;-60
2023/05/14 08:22:31;;;;;;;;;;;19.20;91.50;;;;;;5113700;28;20407;-62
2023/05/14 08:24:58;;;;;;;;;;;19.20;91.50;;;;;;5095984;28;19916;-59
2023/05/14 08:27:23;;;;;;;;;;;19.20;91.40;;;;;;5077620;28;19946;-60
2023/05/14 08:29:49;;;;;;;;;;;19.20;91.40;;;;;;5110943;28;19915;-61
2023/05/14 08:32:14;;;;;;;;;;;19.20;91.40;;;;;;5100638;28;19920;-62
2023/05/14 08:34:40;;;;;;;;;;;19.20;91.20;;;;;;5095567;28;19908;-62
2023/05/14 08:37:05;;;;;;;;;;;19.20;91.40;;;;;;5093507;28;19961;-62
2023/05/14 08:39:31;;;;;;;;;;;19.20;91.40;;;;;;5115166;28;20346;-63
2023/05/14 08:41:56;;;;;;;;;;;19.20;91.40;;;;;;5097795;28;19916;-61
2023/05/14 08:44:27;;;;;;;;;;;19.20;91.40;;;;;;5075705;28;20431;-61
2023/05/14 08:46:52;;;;;;;;;;;19.20;91.40;;;;;;5095214;28;19908;-61
2023/05/14 08:49:26;;;;;;;;;;;19.10;91.30;;;;;;5095184;28;19931;-61
2023/05/14 08:51:51;;;;;;;;;;;19.20;91.30;;;;;;5095352;28;19916;-61
2023/05/14 08:54:17;;;;;;;;;;;19.10;91.30;;;;;;5094009;28;19999;-61
2023/05/14 08:56:44;;;;;;;;;;;19.10;91.30;;;;;;5077606;28;19912;-61
2023/05/14 08:59:10;;;;;;;;;;;19.10;91.20;;;;;;5114490;28;20270;-61
2023/05/14 09:01:36;;;;;;;;;;;19.10;91.20;;;;;;5097117;28;19923;-62
2023/05/14 09:04:05;;;;;;;;;;;19.10;91.20;;;;;;5094726;28;19908;-61
2023/05/14 09:06:31;;;;;;;;;;;19.10;91.20;;;;;;5095495;28;19916;-61
2023/05/14 09:08:57;;;;;;;;;;;19.10;91.20;;;;;;5079058;28;19915;-61
2023/05/14 09:11:23;;;;;;;;;;;19.10;91.20;;;;;;5104114;28;19919;-61
2023/05/14 09:13:48;;;;;;;;;;;19.10;91.20;;;;;;5081180;28;20427;-61
2023/05/14 09:16:15;;;;;;;;;;;19.10;91.20;;;;;;5094928;28;19908;-61
2023/05/14 09:18:42;;;;;;;;;;;19.10;91.10;;;;;;5096014;28;19908;-65
2023/05/14 09:21:08;;;;;;;;;;;19.10;91.10;;;;;;5067368;28;19908;-66
2023/05/14 09:23:33;;;;;;;;;;;19.10;91.10;;;;;;5104917;28;20238;-67
2023/05/14 09:26:02;;;;;;;;;;;19.10;91.10;;;;;;5110241;28;20265;-65
2023/05/14 09:28:29;;;;;;;;;;;19.10;91.10;;;;;;5104177;28;19907;-65
2023/05/14 09:30:54;;;;;;;;;;;19.10;91.10;;;;;;5095821;28;19912;-65
2023/05/14 09:33:29;;;;;;;;;;;19.20;91.10;;;;;;5109823;28;19919;-64
2023/05/14 09:35:59;;;;;;;;;;;19.20;91.10;;;;;;5093412;28;19912;-64
2023/05/14 09:38:28;;;;;;;;;;;19.20;91.10;;;;;;5086685;28;19923;-64
2023/05/14 09:40:54;;;;;;;;;;;19.20;91.10;;;;;;5106927;28;20485;-63
2023/05/14 09:43:19;;;;;;;;;;;19.20;91.10;;;;;;5094644;28;19963;-63
2023/05/14 09:45:45;;;;;;;;;;;19.20;91.10;;;;;;5094540;28;19904;-64
2023/05/14 09:48:10;;;;;;;;;;;19.20;91.10;;;;;;5076407;28;19985;-65
2023/05/14 09:50:43;;;;;;;;;;;19.20;91.10;;;;;;5096283;28;19916;-67
2023/05/14 09:53:09;;;;;;;;;;;19.20;91.20;;;;;;5092747;28;20003;-63
2023/05/14 09:55:35;;;;;;;;;;;19.20;91.20;;;;;;5080307;28;19912;-64
2023/05/14 09:58:00;;;;;;;;;;;19.10;91.20;;;;;;5094474;28;19904;-66
2023/05/14 10:00:26;;;;;;;;;;;19.20;91.20;;;;;;5094088;28;19916;-66
2023/05/14 10:02:52;;;;;;;;;;;19.20;91.20;;;;;;5089904;28;19918;-66
2023/05/14 10:05:19;;;;;;;;;;;19.20;91.20;;;;;;5097602;28;20003;-66
2023/05/14 10:07:49;;;;;;;;;;;19.20;91.20;;;;;;5076302;28;19991;-66
2023/05/14 10:10:15;;;;;;;;;;;19.20;91.20;;;;;;5092962;28;19966;-64
2023/05/14 10:12:43;;;;;;;;;;;19.20;91.20;;;;;;5091010;28;20267;-64
2023/05/14 10:15:15;;;;;;;;;;;19.10;91.10;;;;;;5093072;28;19955;-63
2023/05/14 10:17:41;;;;;;;;;;;19.10;91.10;;;;;;5090195;28;19927;-64
2023/05/14 10:20:08;;;;;;;;;;;19.10;91.40;;;;;;5093864;28;19908;-64
2023/05/14 10:22:34;;;;;;;;;;;19.10;91.10;;;;;;5093554;28;19995;-64
2023/05/14 10:25:01;;;;;;;;;;;19.10;91.10;;;;;;5093387;28;19966;-64
2023/05/14 10:27:26;;;;;;;;;;;19.10;91.10;;;;;;5101015;28;20279;-64
2023/05/14 10:29:53;;;;;;;;;;;19.10;91.10;;;;;;5106234;28;19979;-64
2023/05/14 10:32:19;;;;;;;;;;;19.10;91.10;;;;;;5100028;28;19941;-64
2023/05/14 10:34:45;;;;;;;;;;;19.10;91.00;;;;;;5091317;28;20073;-64
2023/05/14 10:37:11;;;;;;;;;;;19.10;91.00;;;;;;5110305;28;20076;-64
2023/05/14 10:39:39;;;;;;;;;;;19.10;91.00;;;;;;5107331;28;19916;-64
2023/05/14 10:42:05;;;;;;;;;;;19.10;91.00;;;;;;5112999;28;19919;-63
2023/05/14 10:44:33;;;;;;;;;;;19.10;91.00;;;;;;5080691;28;19912;-64
2023/05/14 10:46:59;;;;;;;;;;;19.10;91.00;;;;;;5093381;28;19914;-63
2023/05/14 10:49:25;;;;;;;;;;;19.10;91.00;;;;;;5091850;28;19912;-63
2023/05/14 10:51:52;;;;;;;;;;;19.10;91.00;;;;;;5099205;28;19923;-64
2023/05/14 10:54:22;;;;;;;;;;;19.10;91.00;;;;;;5096640;28;19912;-64
2023/05/14 10:56:48;;;;;;;;;;;19.10;91.00;;;;;;5095630;28;19910;-64
2023/05/14 10:59:15;;;;;;;;;;;19.10;91.00;;;;;;5113720;28;19998;-63
2023/05/14 11:01:41;;;;;;;;;;;19.10;91.00;;;;;;5106905;28;19908;-64
2023/05/14 11:04:06;;;;;;;;;;;19.10;91.00;;;;;;5091955;28;19912;-64
2023/05/14 11:06:32;;;;;;;;;;;19.10;91.00;;;;;;5101497;28;20258;-66
2023/05/14 11:09:00;;;;;;;;;;;19.10;91.00;;;;;;5093058;28;19987;-64
2023/05/14 11:11:25;;;;;;;;;;;19.10;91.00;;;;;;5072113;28;19916;-65
2023/05/14 11:13:52;;;;;;;;;;;19.10;91.00;;;;;;5095932;28;19917;-69
2023/05/14 11:16:21;;;;;;;;;;;19.10;91.00;;;;;;5093641;28;19916;-63
2023/05/14 11:18:46;;;;;;;;;;;19.10;91.00;;;;;;5108041;28;19923;-65
2023/05/14 11:21:12;;;;;;;;;;;19.10;91.00;;;;;;5104192;28;19912;-62
2023/05/14 11:23:37;;;;;;;;;;;19.10;91.00;;;;;;5091809;28;20389;-64
2023/05/14 11:26:03;;;;;;;;;;;19.10;91.00;;;;;;5093514;28;19908;-63
2023/05/14 11:28:28;;;;;;;;;;;19.10;91.00;;;;;;5078073;28;19908;-67
2023/05/14 11:30:54;;;;;;;;;;;19.10;91.00;;;;;;5096717;28;19912;-63
2023/05/14 11:33:20;;;;;;;;;;;19.20;91.00;;;;;;5095246;28;19916;-64
2023/05/14 11:35:47;;;;;;;;;;;19.20;91.00;;;;;;5096653;28;19919;-63
2023/05/14 11:38:20;;;;;;;;;;;19.20;91.00;;;;;;5096856;28;19908;-67
2023/05/14 11:40:53;;;;;;;;;;;19.20;91.00;;;;;;5094568;28;19965;-65
2023/05/14 11:43:18;;;;;;;;;;;19.20;91.00;;;;;;5108623;28;19920;-63
2023/05/14 11:45:48;;;;;;;;;;;19.20;91.10;;;;;;5096727;28;20275;-66
2023/05/14 11:48:13;;;;;;;;;;;19.20;91.10;;;;;;5076366;28;19916;-66
2023/05/14 11:50:40;;;;;;;;;;;19.20;91.10;;;;;;5094368;28;19916;-64
2023/05/14 11:53:05;;;;;;;;;;;19.20;91.10;;;;;;5114221;28;19912;-63
2023/05/14 11:55:33;;;;;;;;;;;19.20;91.10;;;;;;5078313;28;19912;-64
2023/05/14 11:57:58;;;;;;;;;;;19.20;91.10;;;;;;5096905;28;19908;-64
2023/05/14 12:00:25;;;;;;;;;;;19.10;91.20;;;;;;5096497;28;19909;-64
2023/05/14 12:02:50;;;;;;;;;;;19.20;91.20;;;;;;5075641;28;19957;-64
2023/05/14 12:05:16;;;;;;;;;;;19.20;91.20;;;;;;5078494;28;20312;-64
2023/05/14 12:07:43;;;;;;;;;;;19.20;91.20;;;;;;5077117;28;19965;-63
2023/05/14 12:10:10;;;;;;;;;;;19.20;91.20;;;;;;5095934;28;19919;-64
2023/05/14 12:12:36;;;;;;;;;;;19.20;91.20;;;;;;5100183;28;19920;-63
2023/05/14 12:15:09;;;;;;;;;;;19.20;91.20;;;;;;5116649;28;20228;-65
2023/05/14 12:17:36;;;;;;;;;;;19.20;91.20;;;;;;5114528;28;19912;-67
2023/05/14 12:20:02;;;;;;;;;;;19.20;91.20;;;;;;5114797;28;19912;-68
2023/05/14 12:22:28;;;;;;;;;;;19.20;91.20;;;;;;5110241;28;19965;-68
2023/05/14 12:24:53;;;;;;;;;;;19.30;91.20;;;;;;5099032;28;20281;-68
2023/05/14 12:27:21;;;;;;;;;;;19.30;91.20;;;;;;5095948;28;20378;-69
2023/05/14 12:29:46;;;;;;;;;;;19.30;91.20;;;;;;5107142;28;20302;-63
2023/05/14 12:32:13;;;;;;;;;;;19.30;91.20;;;;;;5093832;28;19916;-63
2023/05/14 12:34:38;;;;;;;;;;;19.30;91.20;;;;;;5094459;28;19912;-67
2023/05/14 12:37:04;;;;;;;;;;;19.30;91.20;;;;;;5097047;28;19919;-66
2023/05/14 12:39:31;;;;;;;;;;;19.30;91.20;;;;;;5097227;28;19912;-65
2023/05/14 12:41:57;;;;;;;;;;;19.30;91.20;;;;;;5093819;28;20061;-67
2023/05/14 12:44:22;;;;;;;;;;;19.30;91.20;;;;;;5109585;28;20417;-65
2023/05/14 12:46:48;;;;;;;;;;;19.30;91.10;;;;;;5094591;28;20251;-68
2023/05/14 12:49:13;;;;;;;;;;;19.30;90.50;;;;;;5093725;28;20265;-68
2023/05/14 12:51:39;;;;;;;;;;;19.30;90.40;;;;;;5095349;28;20444;-68
2023/05/14 12:54:07;;;;;;;;;;;19.30;90.90;;;;;;5075770;28;22302;-68
2023/05/14 12:56:32;;;;;;;;;;;19.30;91.00;;;;;;5099431;28;19958;-68
2023/05/14 12:58:58;;;;;;;;;;;19.30;91.00;;;;;;5105524;28;19920;-65
2023/05/14 13:01:23;;;;;;;;;;;19.30;91.00;;;;;;5078075;28;20065;-66
2023/05/14 13:03:49;;;;;;;;;;;19.30;91.00;;;;;;5085096;28;19958;-65
2023/05/14 13:06:15;;;;;;;;;;;19.30;91.00;;;;;;5110783;28;19918;-64
2023/05/14 13:08:40;;;;;;;;;;;19.30;90.90;;;;;;5105687;28;19912;-64
2023/05/14 13:11:07;;;;;;;;;;;19.30;91.00;;;;;;5092239;28;19920;-68
2023/05/14 13:13:32;;;;;;;;;;;19.30;91.00;;;;;;5081378;28;19923;-65
2023/05/14 13:15:58;;;;;;;;;;;19.30;91.00;;;;;;5093653;28;19912;-68
2023/05/14 13:18:25;;;;;;;;;;;19.30;91.00;;;;;;5095307;28;19916;-66
2023/05/14 13:20:50;;;;;;;;;;;19.30;91.00;;;;;;5093679;28;19935;-65
2023/05/14 13:23:16;;;;;;;;;;;19.30;91.30;;;;;;5074989;28;19916;-64
2023/05/14 13:25:41;;;;;;;;;;;19.30;91.10;;;;;;5076866;28;20314;-64
2023/05/14 13:28:07;;;;;;;;;;;19.30;91.10;;;;;;5076620;28;19908;-64
2023/05/14 13:30:32;;;;;;;;;;;19.30;91.40;;;;;;5092586;28;19911;-64
2023/05/14 13:32:58;;;;;;;;;;;19.30;91.10;;;;;;5092247;28;20392;-71
2023/05/14 13:35:24;;;;;;;;;;;19.30;91.10;;;;;;5076370;28;19991;-66
2023/05/14 13:37:49;;;;;;;;;;;19.30;91.20;;;;;;5086367;28;20359;-66
2023/05/14 13:40:15;;;;;;;;;;;19.30;91.20;;;;;;5096645;28;19912;-65
2023/05/14 13:42:41;;;;;;;;;;;19.30;91.20;;;;;;5075627;28;20260;-68
2023/05/14 13:45:06;;;;;;;;;;;19.30;91.20;;;;;;5095260;28;19923;-66
2023/05/14 13:47:32;;;;;;;;;;;19.30;91.10;;;;;;5115125;28;19912;-70
2023/05/14 13:49:58;;;;;;;;;;;19.30;91.10;;;;;;5102235;28;20345;-68
2023/05/14 13:52:23;;;;;;;;;;;19.30;91.10;;;;;;5094154;28;19984;-68
2023/05/14 13:54:49;;;;;;;;;;;19.30;91.10;;;;;;5094112;28;19908;-67
2023/05/14 13:57:14;;;;;;;;;;;19.40;91.20;;;;;;5089856;28;20243;-69
2023/05/14 13:59:40;;;;;;;;;;;19.40;91.20;;;;;;5090053;28;19912;-69
2023/05/14 14:02:06;;;;;;;;;;;19.40;91.20;;;;;;5090593;28;20028;-68
2023/05/14 14:04:31;;;;;;;;;;;19.40;91.20;;;;;;5091607;28;19908;-67
2023/05/14 14:06:57;;;;;;;;;;;19.40;91.20;;;;;;5109646;28;19958;-70
2023/05/14 14:09:23;;;;;;;;;;;19.40;91.20;;;;;;5109538;28;20014;-69